Time;durP1;ratioP1;P1;durP2;ratioP2;P2;SDS_P1;SDS_P2;PMS_P1;PMS_P2;Temp;Humidity;BMP_temperature;BMP_pressure;BME280_temperature;BME280_humidity;BME280_pressure;Samples;Min_cycle;Max_cycle;Signal;HPM_P1;HPM_P2
2022/05/28 00:03:01;;;;;;;1.63;1.47;;;17.90;33.80;;;;;;10571479;27;20713;-78
2022/05/28 00:08:05;;;;;;;2.17;1.90;;;17.90;34.30;;;;;;10566140;27;20215;-79
2022/05/28 00:13:09;;;;;;;1.77;1.67;;;17.90;34.00;;;;;;10568968;27;20241;-79
2022/05/28 00:18:13;;;;;;;2.00;1.80;;;18.00;34.00;;;;;;10568596;28;20724;-78
2022/05/28 00:23:16;;;;;;;1.80;1.70;;;18.00;34.20;;;;;;10571423;27;20233;-79
2022/05/28 00:28:21;;;;;;;1.80;1.70;;;18.00;33.90;;;;;;10570999;27;20632;-79
2022/05/28 00:33:25;;;;;;;1.80;1.70;;;18.10;33.90;;;;;;10561746;27;20314;-79
2022/05/28 00:38:29;;;;;;;1.70;1.60;;;18.10;34.10;;;;;;10558703;27;20245;-78
2022/05/28 00:43:33;;;;;;;1.77;1.57;;;18.10;33.80;;;;;;10567602;27;20299;-79
2022/05/28 00:48:44;;;;;;;1.77;1.67;;;18.20;33.80;;;;;;10563046;28;20256;-79
2022/05/28 00:53:47;;;;;;;1.90;1.80;;;18.20;34.30;;;;;;10567626;28;20230;-79
2022/05/28 00:58:51;;;;;;;2.10;1.87;;;18.10;33.70;;;;;;10568236;28;20229;-78
2022/05/28 01:04:15;;;;;;;1.90;1.80;;;18.10;33.80;;;;;;10565810;27;20597;-79
2022/05/28 01:09:25;;;;;;;2.97;2.23;;;18.10;34.80;;;;;;10557922;27;20219;-78
2022/05/28 01:14:37;;;;;;;3.80;2.33;;;18.00;34.70;;;;;;10575979;28;20254;-79
2022/05/28 01:19:51;;;;;;;3.47;2.00;;;17.80;34.60;;;;;;10586527;28;20597;-80
2022/05/28 01:25:07;;;;;;;1.90;1.80;;;17.70;34.50;;;;;;10587951;27;20243;-80
2022/05/28 01:30:15;;;;;;;3.43;2.10;;;17.70;34.50;;;;;;10595640;27;20229;-81
2022/05/28 01:35:21;;;;;;;2.33;1.90;;;17.60;34.40;;;;;;10594842;28;20238;-80
2022/05/28 01:40:25;;;;;;;2.53;1.90;;;17.60;33.70;;;;;;10593291;27;20262;-81
2022/05/28 01:45:32;;;;;;;3.20;1.90;;;17.50;33.90;;;;;;10554645;28;20303;-80
2022/05/28 01:50:39;;;;;;;2.37;2.17;;;17.50;33.30;;;;;;10570444;28;20243;-80
2022/05/28 01:55:46;;;;;;;2.23;1.80;;;17.40;33.70;;;;;;10562369;27;20671;-80
2022/05/28 02:00:51;;;;;;;2.70;2.00;;;17.40;33.40;;;;;;10567203;27;20232;-80
2022/05/28 02:05:54;;;;;;;5.63;1.90;;;17.20;33.60;;;;;;10573490;27;20784;-80
2022/05/28 02:11:09;;;;;;;2.00;1.80;;;17.20;33.60;;;;;;10579451;28;20231;-80
2022/05/28 02:16:18;;;;;;;2.93;1.83;;;17.10;34.00;;;;;;10563441;27;20224;-80
2022/05/28 02:21:32;;;;;;;3.07;1.93;;;17.00;33.90;;;;;;10571558;27;20279;-80
2022/05/28 02:26:41;;;;;;;2.30;1.87;;;17.00;33.60;;;;;;10567628;28;20310;-80
2022/05/28 02:31:47;;;;;;;4.03;2.20;;;17.00;33.90;;;;;;10570654;27;20568;-80
2022/05/28 02:36:50;;;;;;;1.87;1.77;;;16.90;33.80;;;;;;10570579;28;20435;-79
2022/05/28 02:41:53;;;;;;;1.67;1.57;;;16.80;33.70;;;;;;10573354;28;20227;-80
2022/05/28 02:46:58;;;;;;;2.30;1.67;;;16.80;33.70;;;;;;10567214;27;20218;-80
2022/05/28 02:52:02;;;;;;;2.10;1.80;;;16.80;33.70;;;;;;10572273;28;20227;-79
2022/05/28 02:57:06;;;;;;;3.93;1.87;;;16.80;33.70;;;;;;10572247;28;20234;-79
2022/05/28 03:02:10;;;;;;;5.47;2.30;;;16.80;33.70;;;;;;10571409;27;20246;-79
2022/05/28 03:07:14;;;;;;;3.40;1.80;;;16.80;33.70;;;;;;10554020;28;20302;-79
2022/05/28 03:12:17;;;;;;;5.03;2.20;;;16.80;33.70;;;;;;10573504;27;20299;-79
2022/05/28 03:17:22;;;;;;;4.13;2.10;;;16.80;33.70;;;;;;10567789;28;20220;-81
2022/05/28 03:22:25;;;;;;;3.63;1.90;;;16.80;33.70;;;;;;10574049;28;20309;-79
2022/05/28 03:27:28;;;;;;;3.20;1.90;;;16.70;33.60;;;;;;10558556;27;20222;-80
2022/05/28 03:32:33;;;;;;;3.43;1.93;;;16.60;33.50;;;;;;10565774;27;20234;-79
2022/05/28 03:37:36;;;;;;;4.60;2.17;;;16.50;34.00;;;;;;10572701;28;20286;-80
2022/05/28 03:42:39;;;;;;;2.70;2.03;;;16.50;33.80;;;;;;10568529;28;20251;-79
2022/05/28 03:47:44;;;;;;;2.67;2.00;;;16.60;33.60;;;;;;10569472;27;20251;-79
2022/05/28 03:52:47;;;;;;;3.20;2.17;;;16.50;33.40;;;;;;10562242;27;20227;-79
2022/05/28 03:57:50;;;;;;;3.67;1.90;;;16.40;33.30;;;;;;10571893;27;20261;-79
2022/05/28 04:02:55;;;;;;;3.43;1.97;;;16.30;33.30;;;;;;10567772;28;20813;-80
2022/05/28 04:07:58;;;;;;;4.10;2.07;;;16.30;33.30;;;;;;10574181;27;20302;-79
2022/05/28 04:13:02;;;;;;;5.67;2.20;;;16.20;33.20;;;;;;10561362;27;20727;-79
2022/05/28 04:18:08;;;;;;;2.43;1.73;;;16.20;33.20;;;;;;10567972;28;20242;-79
2022/05/28 04:23:11;;;;;;;4.40;1.80;;;16.20;33.20;;;;;;10571893;28;20227;-79
2022/05/28 04:28:14;;;;;;;4.07;1.90;;;16.20;33.20;;;;;;10541504;28;20771;-79
2022/05/28 04:33:19;;;;;;;2.70;1.70;;;16.20;33.20;;;;;;10534723;28;20291;-79
2022/05/28 04:38:23;;;;;;;4.17;2.10;;;16.20;33.20;;;;;;10537885;28;20310;-79
2022/05/28 04:43:26;;;;;;;3.33;1.90;;;16.20;33.20;;;;;;10543651;27;20333;-80
2022/05/28 04:48:31;;;;;;;4.73;1.90;;;16.10;33.10;;;;;;10580038;28;20243;-79
2022/05/28 04:53:34;;;;;;;6.10;2.10;;;16.00;33.00;;;;;;10580976;27;20239;-80
2022/05/28 04:58:38;;;;;;;3.60;1.73;;;15.90;32.90;;;;;;10590834;28;20227;-80
2022/05/28 05:03:43;;;;;;;5.50;1.93;;;15.70;32.70;;;;;;10600976;27;20222;-80
2022/05/28 05:08:46;;;;;;;4.70;2.27;;;15.60;32.60;;;;;;10606743;27;20271;-79
2022/05/28 05:13:50;;;;;;;3.60;1.80;;;15.60;32.60;;;;;;10579219;27;20228;-81
2022/05/28 05:18:54;;;;;;;6.03;1.83;;;15.50;32.50;;;;;;10581461;27;20246;-79
2022/05/28 05:23:57;;;;;;;4.07;1.87;;;15.50;32.50;;;;;;10588578;27;20711;-79
2022/05/28 05:29:10;;;;;;;6.27;2.03;;;15.50;32.50;;;;;;10584943;27;20235;-79
2022/05/28 05:34:15;;;;;;;6.47;2.20;;;15.60;32.80;;;;;;10579456;27;20231;-80
2022/05/28 05:39:18;;;;;;;3.73;1.90;;;15.60;31.90;;;;;;10572211;27;20241;-78
2022/05/28 05:44:21;;;;;;;4.53;1.90;;;15.50;31.90;;;;;;10587906;27;21956;-79
2022/05/28 05:49:26;;;;;;;4.93;1.80;;;15.50;32.10;;;;;;10562714;27;20219;-80
2022/05/28 05:54:30;;;;;;;4.40;2.10;;;15.50;32.50;;;;;;10580921;27;20235;-79
2022/05/28 05:59:34;;;;;;;6.57;2.10;;;15.50;31.80;;;;;;10581301;28;20219;-79
2022/05/28 06:04:38;;;;;;;5.43;2.20;;;15.50;31.60;;;;;;10568995;28;20227;-79
2022/05/28 06:09:42;;;;;;;3.97;1.80;;;15.50;32.20;;;;;;10564838;28;20228;-79
2022/05/28 06:14:46;;;;;;;3.77;2.10;;;15.60;31.80;;;;;;10568657;28;20313;-78
2022/05/28 06:19:50;;;;;;;7.07;2.33;;;15.50;31.40;;;;;;10543534;28;20241;-79
2022/05/28 06:24:55;;;;;;;4.70;2.30;;;15.50;31.60;;;;;;10561978;28;20307;-79
2022/05/28 06:29:58;;;;;;;4.50;1.90;;;15.50;32.10;;;;;;10567487;28;20224;-79
2022/05/28 06:35:02;;;;;;;4.33;2.17;;;15.60;31.60;;;;;;10566315;28;20227;-79
2022/05/28 06:40:07;;;;;;;4.30;2.10;;;15.60;32.20;;;;;;10556982;27;20231;-79
2022/05/28 06:45:14;;;;;;;5.03;2.00;;;15.70;31.90;;;;;;10554171;28;20251;-79
2022/05/28 06:55:40;;;;;;;4.70;1.70;;;16.00;31.00;;;;;;10553390;28;21035;-78
2022/05/28 07:00:44;;;;;;;6.33;1.93;;;16.00;30.90;;;;;;10548210;28;20228;-78
2022/05/28 07:05:49;;;;;;;6.80;2.10;;;16.00;30.90;;;;;;10525832;28;20223;-77
2022/05/28 07:10:54;;;;;;;5.57;1.87;;;16.10;30.40;;;;;;10551475;28;20327;-77
2022/05/28 07:15:57;;;;;;;3.87;1.70;;;16.10;30.20;;;;;;10559000;28;20217;-77
2022/05/28 07:21:03;;;;;;;4.03;1.57;;;16.10;30.50;;;;;;10562153;28;20604;-78
2022/05/28 07:26:08;;;;;;;5.30;1.80;;;16.10;30.00;;;;;;10502253;28;20216;-77
2022/05/28 07:31:14;;;;;;;4.60;1.80;;;16.10;29.40;;;;;;10501973;28;20219;-77
2022/05/28 07:36:21;;;;;;;3.90;1.30;;;16.10;29.70;;;;;;10506252;28;20823;-77
2022/05/28 07:41:26;;;;;;;7.10;1.40;;;16.10;29.40;;;;;;10507910;28;20235;-78
2022/05/28 07:46:32;;;;;;;3.80;1.30;;;16.20;29.10;;;;;;10503531;28;20684;-77
2022/05/28 07:51:36;;;;;;;2.57;1.30;;;16.30;29.60;;;;;;10509799;28;21148;-79
2022/05/28 07:56:40;;;;;;;2.70;1.40;;;16.40;29.80;;;;;;10550778;28;20224;-79
2022/05/28 08:01:43;;;;;;;6.20;1.50;;;16.50;29.50;;;;;;10551652;28;20235;-78
2022/05/28 08:06:48;;;;;;;4.30;1.27;;;16.60;29.60;;;;;;10562652;28;20307;-79
2022/05/28 08:11:52;;;;;;;2.53;1.40;;;16.80;29.80;;;;;;10568221;28;20250;-79
2022/05/28 08:16:55;;;;;;;3.07;1.40;;;16.90;30.00;;;;;;10558764;27;20222;-79
2022/05/28 08:27:21;;;;;;;3.87;1.13;;;17.20;28.50;;;;;;10540696;27;20451;-79
2022/05/28 08:32:25;;;;;;;2.07;1.00;;;17.30;28.60;;;;;;10562044;28;20241;-79
2022/05/28 08:37:29;;;;;;;2.17;1.00;;;17.30;28.60;;;;;;10563604;28;20553;-79
2022/05/28 08:42:32;;;;;;;1.87;0.97;;;17.30;28.40;;;;;;10571885;27;20226;-78
2022/05/28 08:47:40;;;;;;;2.97;1.10;;;17.40;28.50;;;;;;10565629;27;20237;-82
2022/05/28 08:52:49;;;;;;;1.53;1.20;;;17.50;28.10;;;;;;10564264;27;20235;-81
2022/05/28 08:57:58;;;;;;;3.40;1.10;;;17.70;27.50;;;;;;10577606;27;20238;-77
2022/05/28 09:03:07;;;;;;;1.53;1.20;;;17.90;27.70;;;;;;10572267;27;20231;-77
2022/05/28 09:08:12;;;;;;;2.03;1.13;;;18.00;27.60;;;;;;10586878;27;20212;-77
2022/05/28 09:13:25;;;;;;;3.90;1.13;;;18.10;27.70;;;;;;10571038;27;20247;-78
2022/05/28 09:18:34;;;;;;;4.07;1.07;;;18.20;27.30;;;;;;10578060;27;20698;-77
2022/05/28 09:23:44;;;;;;;3.97;1.00;;;18.30;26.80;;;;;;10576587;28;20235;-77
2022/05/28 09:28:58;;;;;;;3.57;1.10;;;18.40;26.70;;;;;;10583274;27;20218;-77
2022/05/28 09:34:14;;;;;;;1.40;0.90;;;18.50;26.70;;;;;;10580851;27;20219;-77
2022/05/28 09:39:34;;;;;;;0.87;0.83;;;18.50;26.20;;;;;;10570948;28;20217;-77
2022/05/28 09:44:55;;;;;;;1.70;1.00;;;18.50;26.00;;;;;;10580336;27;20227;-77
2022/05/28 09:49:58;;;;;;;2.17;0.97;;;18.60;25.90;;;;;;10568664;27;20253;-77
2022/05/28 09:55:17;;;;;;;1.37;0.90;;;18.70;26.40;;;;;;10574640;27;20734;-76
2022/05/28 10:00:22;;;;;;;1.97;0.90;;;18.80;24.70;;;;;;10571495;27;20226;-76
2022/05/28 10:05:26;;;;;;;1.27;0.87;;;18.80;26.10;;;;;;10575433;28;20272;-76
2022/05/28 10:10:32;;;;;;;2.73;1.00;;;18.90;26.70;;;;;;10583108;27;20249;-77
2022/05/28 10:15:40;;;;;;;1.93;0.93;;;19.10;25.90;;;;;;10574968;27;20790;-76
2022/05/28 10:20:44;;;;;;;1.57;1.00;;;19.20;25.60;;;;;;10574816;27;20226;-77
2022/05/28 10:25:53;;;;;;;2.93;1.13;;;19.40;26.30;;;;;;10615970;27;20218;-77
2022/05/28 10:30:56;;;;;;;2.70;0.90;;;19.50;24.90;;;;;;10574049;28;20711;-77
2022/05/28 10:36:07;;;;;;;2.00;0.90;;;19.50;25.00;;;;;;10574268;28;20310;-76
2022/05/28 10:41:19;;;;;;;2.50;1.20;;;19.60;24.20;;;;;;10573029;27;20227;-77
2022/05/28 10:46:35;;;;;;;1.77;1.07;;;19.70;23.60;;;;;;10574041;27;20683;-76
2022/05/28 10:51:56;;;;;;;2.07;0.90;;;19.60;23.30;;;;;;10574204;28;20222;-77
2022/05/28 10:57:13;;;;;;;1.70;0.90;;;19.60;25.00;;;;;;10573659;27;20278;-76
2022/05/28 11:02:46;;;;;;;1.30;0.90;;;19.70;24.60;;;;;;10531871;28;20229;-77
2022/05/28 11:07:54;;;;;;;3.13;1.17;;;19.80;23.20;;;;;;10543600;28;20229;-77
2022/05/28 11:13:17;;;;;;;1.67;0.90;;;19.80;24.30;;;;;;10575924;28;20286;-78
2022/05/28 11:18:58;;;;;;;3.90;1.10;;;19.70;23.30;;;;;;10547247;27;20233;-76
2022/05/28 11:24:46;;;;;;;1.30;1.00;;;19.80;23.30;;;;;;10509900;28;20248;-77
2022/05/28 11:29:58;;;;;;;1.63;1.10;;;19.90;24.40;;;;;;10528889;27;20312;-77
2022/05/28 11:35:07;;;;;;;2.93;1.00;;;19.90;23.40;;;;;;10572734;28;20242;-77
2022/05/28 11:40:18;;;;;;;1.67;0.90;;;19.90;24.00;;;;;;10558720;28;20712;-75
2022/05/28 11:45:30;;;;;;;2.17;1.00;;;19.90;23.80;;;;;;10524583;28;20235;-77
2022/05/28 11:56:05;;;;;;;2.60;1.17;;;19.80;24.10;;;;;;10577840;27;20233;-77
2022/05/28 12:01:13;;;;;;;1.57;0.90;;;19.90;25.30;;;;;;10582692;27;20223;-79
2022/05/28 12:06:32;;;;;;;3.10;1.20;;;20.00;25.30;;;;;;10518289;28;20215;-77
2022/05/28 12:11:43;;;;;;;2.50;0.83;;;20.30;23.80;;;;;;10509707;28;20231;-76
2022/05/28 12:16:59;;;;;;;2.27;1.07;;;20.40;23.50;;;;;;10519615;28;20250;-80
2022/05/28 12:22:22;;;;;;;1.50;1.00;;;20.50;23.10;;;;;;10540718;28;20616;-77
2022/05/28 12:27:37;;;;;;;2.30;1.10;;;20.50;20.70;;;;;;10530712;28;20286;-78
2022/05/28 12:32:48;;;;;;;1.97;0.90;;;20.50;22.50;;;;;;10536260;28;20610;-75
2022/05/28 12:37:56;;;;;;;2.07;0.83;;;20.50;23.30;;;;;;10516890;28;20227;-75
2022/05/28 12:43:11;;;;;;;1.97;1.00;;;20.60;23.50;;;;;;10519347;28;20590;-75
2022/05/28 12:48:20;;;;;;;1.30;0.83;;;20.60;23.20;;;;;;10533850;28;20235;-73
2022/05/28 12:53:24;;;;;;;2.30;0.90;;;20.60;22.40;;;;;;10522167;28;20236;-74
2022/05/28 12:58:29;;;;;;;2.30;1.00;;;20.60;23.50;;;;;;10511736;28;20224;-75
2022/05/28 13:03:38;;;;;;;0.93;0.83;;;20.60;22.00;;;;;;10509371;28;20238;-72
2022/05/28 13:08:48;;;;;;;1.23;0.90;;;20.50;21.70;;;;;;10502405;28;20577;-72
2022/05/28 13:14:21;;;;;;;1.37;0.80;;;20.50;21.80;;;;;;10505050;28;20223;-72
2022/05/28 13:19:45;;;;;;;1.43;0.90;;;20.50;19.70;;;;;;10493644;28;20224;-71
2022/05/28 13:25:10;;;;;;;1.50;0.90;;;20.50;20.60;;;;;;10510180;28;20231;-71
2022/05/28 13:30:15;;;;;;;1.37;0.80;;;20.60;21.10;;;;;;10547762;27;20219;-72
2022/05/28 13:35:22;;;;;;;1.77;0.80;;;20.70;22.20;;;;;;10554055;27;20605;-73
2022/05/28 13:40:28;;;;;;;1.13;0.80;;;20.70;21.30;;;;;;10554151;27;20223;-71
2022/05/28 13:45:40;;;;;;;1.57;0.90;;;20.70;20.60;;;;;;10560842;28;20231;-73
2022/05/28 13:50:45;;;;;;;1.60;0.80;;;20.60;21.60;;;;;;10576931;27;20321;-72
2022/05/28 13:55:49;;;;;;;1.57;0.87;;;20.60;21.70;;;;;;10576361;28;20795;-73
2022/05/28 14:00:57;;;;;;;1.80;0.80;;;20.50;21.90;;;;;;10576052;27;20233;-73
2022/05/28 14:06:04;;;;;;;1.20;0.97;;;20.50;21.30;;;;;;10573220;27;20225;-73
2022/05/28 14:11:20;;;;;;;1.53;1.00;;;20.60;21.80;;;;;;10575109;28;20227;-73
2022/05/28 14:16:27;;;;;;;2.43;1.00;;;20.70;21.20;;;;;;10573887;27;20230;-73
2022/05/28 14:21:35;;;;;;;2.03;0.80;;;20.80;21.10;;;;;;10615353;27;20271;-73
2022/05/28 14:26:38;;;;;;;2.30;1.07;;;20.70;20.30;;;;;;10575156;27;20310;-73
2022/05/28 14:31:43;;;;;;;4.07;1.00;;;20.70;22.20;;;;;;10576060;27;20233;-74
2022/05/28 14:36:52;;;;;;;2.80;0.90;;;20.70;22.00;;;;;;10559962;28;20230;-73
2022/05/28 14:42:05;;;;;;;4.47;1.23;;;20.80;20.60;;;;;;10572515;28;20227;-73
2022/05/28 14:47:13;;;;;;;2.43;0.90;;;20.80;20.30;;;;;;10568473;27;20545;-75
2022/05/28 14:52:21;;;;;;;1.33;0.93;;;20.70;21.30;;;;;;10556519;28;20306;-74
2022/05/28 14:57:32;;;;;;;1.70;1.10;;;20.80;20.70;;;;;;10562547;27;20318;-74
2022/05/28 15:02:37;;;;;;;1.53;0.93;;;20.80;20.80;;;;;;10537869;27;20323;-75
2022/05/28 15:07:50;;;;;;;4.23;1.10;;;20.80;20.50;;;;;;10554749;28;20227;-75
2022/05/28 15:12:53;;;;;;;2.50;1.20;;;20.70;18.20;;;;;;10566585;27;20757;-76
2022/05/28 15:17:56;;;;;;;1.87;0.80;;;20.50;19.90;;;;;;10562350;28;20313;-77
2022/05/28 15:23:00;;;;;;;1.93;1.20;;;20.40;20.30;;;;;;10572209;28;20317;-76
2022/05/28 15:28:05;;;;;;;2.17;1.13;;;20.40;20.50;;;;;;10535820;28;20305;-77
2022/05/28 15:33:13;;;;;;;1.90;1.17;;;20.40;20.30;;;;;;10524493;28;20234;-77
2022/05/28 15:38:18;;;;;;;1.20;0.93;;;20.50;20.60;;;;;;10560610;28;20220;-78
2022/05/28 15:43:23;;;;;;;2.80;0.90;;;20.50;20.00;;;;;;10553567;28;20231;-79
2022/05/28 15:48:26;;;;;;;1.13;1.00;;;20.50;20.00;;;;;;10568950;28;20231;-76
2022/05/28 15:53:31;;;;;;;1.70;1.47;;;20.50;20.40;;;;;;10560869;28;20237;-77
2022/05/28 15:58:37;;;;;;;2.87;1.20;;;20.50;20.50;;;;;;10566388;27;20237;-76
2022/05/28 16:03:41;;;;;;;1.00;1.00;;;20.60;20.10;;;;;;10548717;28;20320;-76
2022/05/28 16:08:46;;;;;;;1.07;0.70;;;20.70;20.50;;;;;;10544647;28;20520;-76
2022/05/28 16:13:49;;;;;;;1.03;0.90;;;20.70;20.00;;;;;;10539244;28;20235;-77
2022/05/28 16:18:55;;;;;;;1.47;0.93;;;20.80;20.20;;;;;;10544546;28;21081;-76
2022/05/28 16:24:00;;;;;;;1.03;0.93;;;20.80;19.70;;;;;;10542903;28;20234;-77
2022/05/28 16:29:05;;;;;;;1.10;1.00;;;20.80;19.90;;;;;;10545314;28;20230;-76
2022/05/28 16:34:10;;;;;;;1.13;1.03;;;20.90;20.00;;;;;;10542600;28;20769;-77
2022/05/28 16:39:15;;;;;;;1.63;0.90;;;21.00;20.20;;;;;;10545167;27;20314;-76
2022/05/28 16:44:19;;;;;;;1.07;0.90;;;21.00;19.80;;;;;;10552186;28;20982;-77
2022/05/28 16:49:23;;;;;;;1.63;0.93;;;21.00;19.80;;;;;;10551219;28;20227;-76
2022/05/28 16:54:27;;;;;;;0.77;0.77;;;21.00;20.10;;;;;;10547569;28;20236;-78
2022/05/28 16:59:31;;;;;;;0.90;0.90;;;21.10;19.50;;;;;;10563468;28;20242;-76
2022/05/28 17:04:34;;;;;;;1.00;0.90;;;21.10;19.30;;;;;;10543321;28;20258;-77
2022/05/28 17:09:47;;;;;;;1.17;1.07;;;21.00;19.30;;;;;;10555114;27;20231;-76
2022/05/28 17:14:51;;;;;;;0.90;0.90;;;21.00;19.20;;;;;;10521264;28;20231;-77
2022/05/28 17:19:54;;;;;;;2.40;1.00;;;21.00;19.50;;;;;;10551600;27;20801;-78
2022/05/28 17:24:58;;;;;;;1.80;1.00;;;21.00;19.40;;;;;;10547003;28;20301;-78
2022/05/28 17:30:02;;;;;;;1.27;0.90;;;21.10;19.00;;;;;;10519704;28;20300;-78
2022/05/28 17:35:06;;;;;;;1.73;1.30;;;21.10;18.80;;;;;;10507500;28;20231;-80
2022/05/28 17:40:13;;;;;;;0.93;0.90;;;21.00;18.90;;;;;;10504472;28;20595;-79
2022/05/28 17:45:17;;;;;;;1.10;0.90;;;20.90;18.80;;;;;;10508235;28;20609;-79
2022/05/28 17:50:23;;;;;;;1.50;1.10;;;20.90;18.90;;;;;;10501603;28;20235;-79
2022/05/28 17:55:27;;;;;;;2.27;1.03;;;20.90;18.90;;;;;;10523713;28;20252;-79
2022/05/28 18:00:31;;;;;;;1.23;1.07;;;20.80;18.90;;;;;;10521282;28;20761;-80
2022/05/28 18:05:39;;;;;;;2.50;1.00;;;20.80;19.10;;;;;;10521098;28;20224;-79
2022/05/28 18:10:44;;;;;;;1.10;0.97;;;20.80;18.60;;;;;;10518802;28;20252;-79
2022/05/28 18:15:52;;;;;;;1.83;1.10;;;20.70;18.90;;;;;;10526038;28;21873;-79
2022/05/28 18:20:56;;;;;;;1.50;0.93;;;20.60;18.90;;;;;;10514200;28;20234;-79
2022/05/28 18:26:01;;;;;;;1.37;1.10;;;20.60;19.10;;;;;;10521534;28;20224;-79
2022/05/28 18:31:05;;;;;;;1.00;1.00;;;20.50;19.10;;;;;;10518861;28;21060;-79
2022/05/28 18:36:10;;;;;;;2.37;1.10;;;20.50;19.20;;;;;;10521484;28;20345;-80
2022/05/28 18:41:16;;;;;;;1.13;1.03;;;20.50;19.10;;;;;;10519105;28;20232;-80
2022/05/28 18:46:20;;;;;;;2.90;1.10;;;20.40;18.90;;;;;;10503332;28;20734;-79
2022/05/28 18:51:27;;;;;;;2.20;1.10;;;20.30;19.50;;;;;;10505088;28;20228;-79
2022/05/28 18:56:34;;;;;;;3.43;1.00;;;20.30;19.60;;;;;;10504873;28;20262;-79
2022/05/28 19:01:37;;;;;;;1.90;1.13;;;20.30;19.60;;;;;;10499957;28;20232;-79
2022/05/28 19:06:44;;;;;;;1.60;1.00;;;20.20;19.90;;;;;;10507280;28;20239;-79
2022/05/28 19:11:52;;;;;;;1.20;1.10;;;20.10;19.90;;;;;;10499857;28;20239;-79
2022/05/28 19:17:15;;;;;;;1.00;0.90;;;20.00;19.60;;;;;;10505024;28;20220;-79
2022/05/28 19:22:19;;;;;;;2.40;1.30;;;19.90;20.10;;;;;;10499871;28;20234;-79
2022/05/28 19:27:23;;;;;;;2.10;1.10;;;19.80;20.10;;;;;;10496724;28;20243;-78
2022/05/28 19:32:32;;;;;;;2.30;0.90;;;19.60;20.00;;;;;;10502097;28;20281;-79
2022/05/28 19:37:38;;;;;;;1.40;1.30;;;19.50;20.40;;;;;;10495566;28;20305;-79
2022/05/28 19:42:47;;;;;;;1.10;1.00;;;19.40;20.70;;;;;;10503900;28;20219;-79
2022/05/28 19:47:57;;;;;;;2.63;1.30;;;19.30;21.10;;;;;;10498699;28;20724;-79
2022/05/28 19:53:00;;;;;;;1.27;1.10;;;19.30;21.50;;;;;;10499760;28;20719;-79
2022/05/28 19:58:06;;;;;;;1.30;1.00;;;19.20;21.30;;;;;;10499928;28;20227;-79
2022/05/28 20:03:12;;;;;;;1.10;1.10;;;19.20;21.60;;;;;;10501734;28;20235;-79
2022/05/28 20:08:16;;;;;;;1.93;1.20;;;19.10;21.60;;;;;;10499875;28;20219;-79
2022/05/28 20:13:22;;;;;;;1.17;1.13;;;19.10;21.60;;;;;;10496179;28;20615;-78
2022/05/28 20:18:26;;;;;;;1.13;1.03;;;19.10;21.80;;;;;;10511738;28;20228;-78
2022/05/28 20:23:31;;;;;;;1.37;1.27;;;19.00;21.70;;;;;;10511251;28;20238;-79
2022/05/28 20:28:36;;;;;;;1.50;1.40;;;19.00;21.90;;;;;;10514443;28;20230;-78
2022/05/28 20:33:39;;;;;;;1.50;1.40;;;19.00;21.90;;;;;;10506748;28;20235;-79
2022/05/28 20:38:43;;;;;;;1.60;1.40;;;18.90;21.80;;;;;;10515836;28;20590;-79
2022/05/28 20:43:47;;;;;;;1.50;1.40;;;18.70;21.80;;;;;;10510320;28;20234;-78
2022/05/28 20:48:56;;;;;;;1.50;1.40;;;18.60;22.20;;;;;;10506005;28;20232;-79
2022/05/28 20:53:59;;;;;;;3.77;1.50;;;18.50;22.40;;;;;;10510147;28;20273;-79
2022/05/28 20:59:05;;;;;;;2.67;1.27;;;18.40;22.40;;;;;;10500315;28;20220;-79
2022/05/28 21:04:08;;;;;;;1.10;1.10;;;18.40;23.00;;;;;;10509092;28;20226;-79
2022/05/28 21:09:17;;;;;;;1.30;1.20;;;18.30;22.80;;;;;;10502989;28;20220;-79
2022/05/28 21:14:22;;;;;;;1.30;1.20;;;18.30;23.00;;;;;;10506653;28;20231;-79
2022/05/28 21:19:28;;;;;;;4.47;1.30;;;18.20;23.40;;;;;;10511176;28;20796;-79
2022/05/28 21:24:31;;;;;;;1.47;1.20;;;18.10;23.40;;;;;;10503401;28;20230;-79
2022/05/28 21:29:51;;;;;;;1.30;1.20;;;18.00;23.30;;;;;;10506175;28;20228;-81
2022/05/28 21:34:56;;;;;;;1.20;1.20;;;17.90;23.70;;;;;;10503725;28;20231;-78
2022/05/28 21:39:59;;;;;;;1.80;1.30;;;17.90;23.90;;;;;;10503860;28;20215;-79
2022/05/28 21:45:05;;;;;;;1.60;1.40;;;17.80;23.80;;;;;;10514094;28;20407;-79
2022/05/28 21:50:11;;;;;;;2.10;1.50;;;17.80;23.90;;;;;;10547320;28;20223;-79
2022/05/28 21:55:21;;;;;;;2.20;1.27;;;17.70;23.80;;;;;;10542088;27;20250;-79
2022/05/28 22:00:57;;;;;;;2.70;1.50;;;17.70;24.90;;;;;;10548022;28;20735;-79
2022/05/28 22:06:02;;;;;;;3.60;1.30;;;17.50;24.40;;;;;;10544199;27;20605;-79
2022/05/28 22:11:05;;;;;;;3.10;1.53;;;17.50;23.80;;;;;;10547817;27;20258;-79
2022/05/28 22:16:12;;;;;;;1.57;1.47;;;17.40;23.80;;;;;;10550351;28;20703;-79
2022/05/28 22:21:17;;;;;;;1.60;1.50;;;17.30;24.20;;;;;;10542981;28;20228;-79
2022/05/28 22:26:21;;;;;;;1.67;1.57;;;17.30;24.30;;;;;;10546211;28;24249;-79
2022/05/28 22:31:26;;;;;;;1.90;1.80;;;17.20;24.00;;;;;;10545063;28;20707;-79
2022/05/28 22:36:32;;;;;;;2.17;1.67;;;17.10;24.20;;;;;;10543883;28;20228;-80
2022/05/28 22:41:36;;;;;;;2.20;1.70;;;17.00;24.40;;;;;;10547045;28;20234;-79
2022/05/28 22:46:39;;;;;;;3.50;1.70;;;17.00;24.10;;;;;;10550699;28;20694;-80
2022/05/28 22:51:45;;;;;;;2.03;1.70;;;16.90;24.30;;;;;;10549100;28;20255;-78
2022/05/28 22:56:48;;;;;;;1.90;1.67;;;16.70;24.50;;;;;;10537088;28;20231;-79
2022/05/28 23:01:52;;;;;;;2.27;1.70;;;16.70;24.50;;;;;;10550163;28;20223;-78
2022/05/28 23:06:58;;;;;;;1.70;1.60;;;16.70;24.80;;;;;;10544571;28;20230;-79
2022/05/28 23:12:01;;;;;;;2.00;1.70;;;16.70;25.00;;;;;;10551001;28;20798;-79
2022/05/28 23:17:05;;;;;;;1.60;1.50;;;16.70;25.00;;;;;;10525589;28;20227;-79
2022/05/28 23:22:10;;;;;;;2.00;1.73;;;16.70;25.10;;;;;;10552999;27;20231;-79
2022/05/28 23:27:14;;;;;;;2.73;2.20;;;16.70;25.30;;;;;;10523218;28;20223;-78
2022/05/28 23:32:17;;;;;;;2.30;2.00;;;16.70;25.10;;;;;;10544033;27;20322;-80
2022/05/28 23:37:22;;;;;;;2.07;1.83;;;16.70;25.20;;;;;;10496471;28;20228;-78
2022/05/28 23:42:25;;;;;;;1.97;1.77;;;16.70;25.80;;;;;;10501980;28;20232;-79
2022/05/28 23:47:28;;;;;;;2.43;1.90;;;16.70;25.60;;;;;;10507268;28;20273;-79
2022/05/28 23:52:33;;;;;;;1.63;1.57;;;16.70;25.80;;;;;;10510688;28;20311;-79
2022/05/28 23:57:36;;;;;;;2.00;1.50;;;16.70;26.10;;;;;;10505365;28;20232;-79
